Time;durP1;ratioP1;P1;durP2;ratioP2;P2;SDS_P1;SDS_P2;PMS_P1;PMS_P2;Temp;Humidity;BMP_temperature;BMP_pressure;BME280_temperature;BME280_humidity;BME280_pressure;Samples;Min_cycle;Max_cycle;Signal;HPM_P1;HPM_P2
2024/04/18 00:01:35;;;;;;;11.00;9.70;;;;;;;9.98;100.00;98132.11;104308;1266;69816;-56
2024/04/18 00:04:01;;;;;;;11.80;9.00;;;;;;;9.86;100.00;98127.67;104219;1276;72292;-56
2024/04/18 00:06:29;;;;;;;11.00;9.80;;;;;;;9.90;100.00;98126.87;104528;1257;61386;-56
2024/04/18 00:08:59;;;;;;;10.40;9.30;;;;;;;9.86;100.00;98130.45;104317;1258;61746;-55
2024/04/18 00:11:27;;;;;;;12.80;9.70;;;;;;;9.90;100.00;98131.27;104398;1261;75397;-56
2024/04/18 00:13:54;;;;;;;10.90;9.70;;;;;;;10.05;100.00;98135.36;104615;1261;70434;-55
2024/04/18 00:16:36;;;;;;;11.00;9.90;;;;;;;10.08;100.00;98133.95;104233;1268;72795;-56
2024/04/18 00:19:15;;;;;;;9.90;8.90;;;;;;;10.08;100.00;98139.15;104335;1270;63107;-56
2024/04/18 00:21:58;;;;;;;9.90;8.80;;;;;;;10.06;100.00;98141.78;104563;1257;61301;-56
2024/04/18 00:24:26;;;;;;;9.40;8.50;;;;;;;9.79;100.00;98140.36;104825;1256;74549;-55
2024/04/18 00:26:53;;;;;;;9.40;8.50;;;;;;;9.97;100.00;98136.54;104501;1260;69298;-54
2024/04/18 00:29:23;;;;;;;9.70;8.90;;;;;;;10.02;100.00;98132.41;104446;1257;73073;-55
2024/04/18 00:32:08;;;;;;;11.70;9.80;;;;;;;10.02;100.00;98131.02;104583;1259;61353;-54
2024/04/18 00:34:35;;;;;;;12.00;8.40;;;;;;;10.02;100.00;98126.10;104868;1257;60762;-54
2024/04/18 00:37:02;;;;;;;8.80;7.90;;;;;;;9.97;100.00;98121.72;104865;1257;75307;-58
2024/04/18 00:39:51;;;;;;;9.50;8.50;;;;;;;9.78;100.00;98121.29;104829;1263;69829;-56
2024/04/18 00:42:38;;;;;;;13.10;8.00;;;;;;;9.70;100.00;98131.98;104632;1257;72948;-54
2024/04/18 00:45:06;;;;;;;9.70;8.70;;;;;;;9.77;100.00;98126.95;104637;1262;61270;-54
2024/04/18 00:47:46;;;;;;;9.60;8.70;;;;;;;9.72;100.00;98132.35;104706;1257;61350;-56
2024/04/18 00:50:14;;;;;;;10.80;9.60;;;;;;;9.68;100.00;98130.02;104262;1264;74389;-52
2024/04/18 00:52:41;;;;;;;10.20;8.80;;;;;;;9.66;100.00;98136.45;104789;1266;69278;-52
2024/04/18 00:55:25;;;;;;;12.10;8.70;;;;;;;9.69;100.00;98134.85;105762;1260;73065;-55
2024/04/18 00:58:10;;;;;;;9.60;8.00;;;;;;;9.74;100.00;98135.61;104846;1262;61320;-56
2024/04/18 01:00:41;;;;;;;9.80;8.60;;;;;;;9.72;100.00;98130.26;104489;1260;61355;-55
2024/04/18 01:03:28;;;;;;;10.90;7.60;;;;;;;9.88;100.00;98145.70;104377;1271;75081;-56
2024/04/18 01:06:07;;;;;;;14.20;7.40;;;;;;;9.98;100.00;98148.07;104879;1257;69089;-56
2024/04/18 01:08:53;;;;;;;9.10;7.80;;;;;;;9.96;100.00;98152.92;104275;1260;73275;-55
2024/04/18 01:11:44;;;;;;;8.40;6.80;;;;;;;9.84;100.00;98152.48;103951;1262;61311;-55
2024/04/18 01:14:11;;;;;;;7.40;6.70;;;;;;;9.81;100.00;98152.83;104893;1257;61359;-55
2024/04/18 01:16:56;;;;;;;11.50;8.00;;;;;;;9.91;100.00;98146.77;105114;1257;75577;-56
2024/04/18 01:19:23;;;;;;;9.40;8.30;;;;;;;9.84;100.00;98146.15;104777;1277;69132;-55
2024/04/18 01:21:50;;;;;;;9.90;8.50;;;;;;;9.91;100.00;98148.33;104258;1257;72944;-55
2024/04/18 01:24:21;;;;;;;11.90;8.50;;;;;;;9.80;100.00;98146.20;105116;1256;61376;-56
2024/04/18 01:26:48;;;;;;;8.40;7.60;;;;;;;9.81;100.00;98145.10;104958;1260;60762;-56
2024/04/18 01:29:15;;;;;;;10.60;8.70;;;;;;;9.78;100.00;98141.11;104691;1256;74316;-55
2024/04/18 01:32:02;;;;;;;9.20;7.80;;;;;;;9.86;100.00;98138.29;104758;1257;71139;-57
2024/04/18 01:34:30;;;;;;;9.90;8.80;;;;;;;10.09;100.00;98138.92;104524;1258;71493;-56
2024/04/18 01:37:16;;;;;;;9.60;8.70;;;;;;;10.09;100.00;98148.06;104702;1267;61153;-55
2024/04/18 01:39:43;;;;;;;9.30;8.50;;;;;;;9.93;100.00;98149.09;104541;1260;61257;-55
2024/04/18 01:42:11;;;;;;;9.40;8.50;;;;;;;9.76;100.00;98142.77;104553;1261;74495;-56
2024/04/18 01:44:44;;;;;;;9.80;8.00;;;;;;;9.75;100.00;98135.14;104714;1257;70122;-56
2024/04/18 01:47:30;;;;;;;9.70;8.90;;;;;;;9.78;100.00;98127.30;104811;1267;71243;-56
2024/04/18 01:50:09;;;;;;;9.80;8.90;;;;;;;9.65;100.00;98123.00;104643;1259;61455;-56
2024/04/18 01:52:37;;;;;;;9.50;8.50;;;;;;;9.75;100.00;98118.52;104737;1257;60790;-56
2024/04/18 01:55:07;;;;;;;9.70;8.80;;;;;;;9.82;100.00;98116.86;106102;1258;74493;-56
2024/04/18 01:57:37;;;;;;;9.70;8.60;;;;;;;9.85;100.00;98119.13;104601;1257;70052;-56
2024/04/18 02:00:22;;;;;;;9.50;8.40;;;;;;;9.87;100.00;98125.84;105032;1257;73251;-56
2024/04/18 02:02:49;;;;;;;10.50;9.50;;;;;;;9.84;100.00;98125.67;104850;1261;61277;-55
2024/04/18 02:05:35;;;;;;;9.60;8.70;;;;;;;9.81;100.00;98123.41;105315;1257;61758;-56
2024/04/18 02:08:14;;;;;;;10.00;8.80;;;;;;;9.78;100.00;98122.36;104725;1260;75170;-55
2024/04/18 02:10:44;;;;;;;10.20;9.40;;;;;;;9.75;100.00;98113.25;104657;1258;69729;-55
2024/04/18 02:13:34;;;;;;;11.90;9.60;;;;;;;9.81;100.00;98106.77;105038;1258;71715;-55
2024/04/18 02:16:04;;;;;;;11.10;9.80;;;;;;;9.85;100.00;98098.11;105137;1256;61253;-56
2024/04/18 02:19:06;;;;;;;11.00;9.80;;;;;;;9.88;100.00;98099.16;105360;1257;60940;-56
2024/04/18 02:21:52;;;;;;;11.50;10.10;;;;;;;9.90;100.00;98107.59;104739;1260;75285;-55
2024/04/18 02:24:32;;;;;;;11.10;10.00;;;;;;;9.91;100.00;98107.74;104654;1260;70118;-56
2024/04/18 02:26:58;;;;;;;11.80;10.80;;;;;;;9.94;100.00;98106.45;104430;1260;72914;-52
2024/04/18 02:29:25;;;;;;;12.00;10.80;;;;;;;9.97;100.00;98107.48;104475;1257;61339;-52
2024/04/18 02:31:59;;;;;;;11.10;10.10;;;;;;;9.97;100.00;98111.73;104483;1257;61346;-55
2024/04/18 02:34:32;;;;;;;10.30;9.30;;;;;;;9.91;100.00;98113.16;104834;1260;74844;-58
2024/04/18 02:37:21;;;;;;;10.80;9.70;;;;;;;9.89;100.00;98106.28;104545;1270;69892;-55
2024/04/18 02:39:48;;;;;;;12.40;9.50;;;;;;;9.90;100.00;98106.23;104367;1263;72708;-55
2024/04/18 02:42:24;;;;;;;11.00;8.90;;;;;;;10.02;100.00;98107.18;104730;1254;61414;-55
2024/04/18 02:45:01;;;;;;;10.00;8.90;;;;;;;9.92;100.00;98110.08;105364;1254;60355;-55
2024/04/18 02:47:49;;;;;;;10.50;8.80;;;;;;;9.94;100.00;98106.48;104352;1259;76799;-55
2024/04/18 02:50:36;;;;;;;9.30;8.50;;;;;;;9.96;100.00;98100.77;104848;1252;70092;-56
2024/04/18 02:53:02;;;;;;;10.10;9.20;;;;;;;9.99;100.00;98097.60;104559;1254;61368;-55
2024/04/18 02:55:29;;;;;;;9.60;8.80;;;;;;;10.04;100.00;98090.42;104698;1268;60839;-55
2024/04/18 02:57:56;;;;;;;10.20;9.10;;;;;;;9.99;100.00;98086.74;104621;1254;60769;-55
2024/04/18 03:00:23;;;;;;;9.40;8.60;;;;;;;9.97;100.00;98084.80;104851;1253;74643;-55
2024/04/18 03:03:08;;;;;;;9.20;8.40;;;;;;;9.98;100.00;98080.34;105511;1253;69948;-55
2024/04/18 03:06:04;;;;;;;9.80;8.90;;;;;;;9.98;100.00;98078.92;104601;1255;73099;-55
2024/04/18 03:08:32;;;;;;;9.40;8.30;;;;;;;9.98;100.00;98080.70;105259;1253;61365;-56
2024/04/18 03:11:25;;;;;;;10.50;8.30;;;;;;;9.92;100.00;98085.60;104764;1254;61301;-56
2024/04/18 03:14:07;;;;;;;8.60;7.60;;;;;;;9.88;100.00;98081.63;104579;1258;74854;-57
2024/04/18 03:16:34;;;;;;;8.00;7.30;;;;;;;9.89;100.00;98082.31;105046;1257;69185;-56
2024/04/18 03:19:19;;;;;;;9.50;7.90;;;;;;;9.88;100.00;98082.70;104390;1256;73416;-56
2024/04/18 03:21:52;;;;;;;9.50;7.70;;;;;;;9.86;100.00;98085.80;104496;1261;61357;-56
2024/04/18 03:24:20;;;;;;;9.20;8.40;;;;;;;10.04;100.00;98083.42;105021;1253;62664;-56
2024/04/18 03:26:49;;;;;;;8.10;7.10;;;;;;;10.15;100.00;98081.98;104618;1258;76056;-56
2024/04/18 03:29:15;;;;;;;9.50;6.90;;;;;;;9.94;100.00;98086.00;104574;1255;70115;-56
2024/04/18 03:31:59;;;;;;;7.70;7.10;;;;;;;9.92;100.00;98085.55;105047;1251;73103;-57
2024/04/18 03:34:44;;;;;;;9.10;7.20;;;;;;;9.84;100.00;98070.05;104691;1251;61375;-57
2024/04/18 03:37:11;;;;;;;8.10;7.10;;;;;;;10.16;100.00;98081.78;105094;1251;61631;-55
2024/04/18 03:39:38;;;;;;;7.40;6.60;;;;;;;10.32;100.00;98074.09;104873;1256;75152;-55
2024/04/18 03:42:06;;;;;;;8.10;6.90;;;;;;;10.30;100.00;98070.36;104444;1257;70937;-55
2024/04/18 03:44:52;;;;;;;7.40;6.70;;;;;;;10.30;100.00;98070.50;104376;1252;73055;-55
2024/04/18 03:47:19;;;;;;;10.40;6.20;;;;;;;10.06;100.00;98067.52;104817;1255;61372;-56
2024/04/18 03:50:05;;;;;;;6.80;6.10;;;;;;;9.99;100.00;98069.23;104779;1269;61251;-56
2024/04/18 03:52:38;;;;;;;6.80;6.00;;;;;;;10.02;100.00;98062.55;105014;1255;74464;-56
2024/04/18 03:55:16;;;;;;;7.70;6.00;;;;;;;10.07;100.00;98059.45;104868;1251;68746;-56
2024/04/18 03:57:50;;;;;;;7.00;5.80;;;;;;;10.10;100.00;98062.36;105368;1254;72220;-55
2024/04/18 04:00:36;;;;;;;7.80;6.40;;;;;;;10.14;100.00;98068.91;105084;1251;61294;-57
2024/04/18 04:03:06;;;;;;;8.00;5.70;;;;;;;10.17;100.00;98067.87;105000;1253;61359;-56
2024/04/18 04:05:33;;;;;;;6.60;5.80;;;;;;;10.18;100.00;98071.48;104463;1254;74322;-57
2024/04/18 04:08:05;;;;;;;7.50;6.20;;;;;;;10.18;100.00;98069.55;105936;1251;69958;-58
2024/04/18 04:10:39;;;;;;;10.30;6.00;;;;;;;10.15;100.00;98068.54;106945;1252;73714;-55
2024/04/18 04:13:06;;;;;;;8.90;6.10;;;;;;;10.14;100.00;98064.40;107062;1251;61317;-55
2024/04/18 04:15:46;;;;;;;6.80;6.10;;;;;;;10.16;100.00;98061.83;107160;1251;61316;-55
2024/04/18 04:18:33;;;;;;;7.20;5.50;;;;;;;10.20;100.00;98061.40;107484;1252;74933;-56
2024/04/18 04:21:19;;;;;;;6.00;5.40;;;;;;;10.23;100.00;98058.17;106809;1252;69361;-57
2024/04/18 04:23:46;;;;;;;6.60;5.30;;;;;;;10.28;100.00;98055.55;105969;1257;72295;-56
2024/04/18 04:26:13;;;;;;;9.20;5.80;;;;;;;10.30;100.00;98054.27;106513;1252;61352;-55
2024/04/18 04:28:40;;;;;;;7.30;5.20;;;;;;;10.31;100.00;98055.58;106715;1251;61264;-54
2024/04/18 04:31:06;;;;;;;5.80;5.30;;;;;;;10.31;100.00;98050.85;106426;1250;73408;-55
2024/04/18 04:33:33;;;;;;;6.60;6.00;;;;;;;10.22;100.00;98053.54;106200;1256;69736;-54
2024/04/18 04:36:00;;;;;;;6.00;5.30;;;;;;;10.22;100.00;98059.29;106901;1251;72711;-54
2024/04/18 04:38:27;;;;;;;6.70;5.10;;;;;;;10.28;100.00;98052.77;107072;1251;60924;-56
2024/04/18 04:40:55;;;;;;;5.60;5.10;;;;;;;10.30;100.00;98049.48;107332;1256;59406;-55
2024/04/18 04:43:22;;;;;;;9.20;5.20;;;;;;;10.32;100.00;98041.51;107085;1252;73607;-54
2024/04/18 04:45:55;;;;;;;5.40;4.90;;;;;;;10.37;100.00;98041.67;107143;1251;69894;-55
2024/04/18 04:48:38;;;;;;;6.30;5.70;;;;;;;10.37;100.00;98036.13;106597;1252;72990;-55
2024/04/18 04:51:11;;;;;;;5.10;4.60;;;;;;;10.39;100.00;98036.66;106732;1253;59975;-54
2024/04/18 04:53:38;;;;;;;5.20;4.50;;;;;;;10.40;100.00;98040.48;106404;1251;60618;-55
2024/04/18 04:56:05;;;;;;;5.30;4.90;;;;;;;10.38;100.00;98040.73;106585;1252;74982;-58
2024/04/18 04:58:33;;;;;;;7.30;4.80;;;;;;;10.42;100.00;98045.05;106731;1251;69379;-56
2024/04/18 05:01:02;;;;;;;7.20;5.40;;;;;;;10.43;100.00;98039.70;106626;1251;61362;-55
2024/04/18 05:03:39;;;;;;;;;;;;;;;10.45;100.00;98035.41;107060;1252;61218;-55
2024/04/18 05:06:24;;;;;;;5.90;4.80;;;;;;;10.43;100.00;98029.73;106772;1253;61232;-55
2024/04/18 05:09:10;;;;;;;6.50;4.90;;;;;;;10.46;100.00;98032.14;106524;1252;74704;-55
2024/04/18 05:11:36;;;;;;;5.90;4.60;;;;;;;10.46;100.00;98027.42;106808;1250;69374;-56
2024/04/18 05:14:24;;;;;;;5.20;4.80;;;;;;;10.43;100.00;98026.58;107370;1253;71715;-56
2024/04/18 05:16:52;;;;;;;5.60;5.10;;;;;;;10.42;100.00;98033.31;106712;1251;62609;-55
2024/04/18 05:19:22;;;;;;;6.30;4.90;;;;;;;10.45;100.00;98040.83;106753;1252;60543;-54
2024/04/18 05:21:51;;;;;;;5.50;4.70;;;;;;;10.44;100.00;98042.63;107085;1252;75112;-54
2024/04/18 05:24:34;;;;;;;8.70;5.00;;;;;;;10.43;100.00;98047.79;106963;1251;72100;-56
2024/04/18 05:27:02;;;;;;;5.10;4.60;;;;;;;10.44;100.00;98051.75;106688;1251;71214;-54
2024/04/18 05:32:15;;;;;;;5.20;4.80;;;;;;;10.38;100.00;98044.65;107470;1251;61224;-54
2024/04/18 05:35:01;;;;;;;5.00;4.50;;;;;;;10.39;100.00;98046.13;107578;1252;74372;-55
2024/04/18 05:37:28;;;;;;;4.80;4.40;;;;;;;10.39;100.00;98042.11;107506;1251;68706;-55
2024/04/18 05:39:55;;;;;;;6.50;4.30;;;;;;;10.37;100.00;98039.98;107364;1251;72413;-54
2024/04/18 05:42:24;;;;;;;5.10;4.60;;;;;;;10.41;100.00;98031.13;107331;1253;61289;-54
2024/04/18 05:45:10;;;;;;;4.70;4.30;;;;;;;10.38;100.00;98025.88;107611;1252;60369;-56
2024/04/18 05:47:55;;;;;;;5.60;4.90;;;;;;;10.37;100.00;98019.48;107543;1252;74621;-54
2024/04/18 05:50:22;;;;;;;5.00;4.60;;;;;;;10.40;100.00;98019.98;107719;1251;69384;-54
2024/04/18 05:52:51;;;;;;;5.10;4.40;;;;;;;10.41;100.00;98020.73;107572;1253;72815;-55
2024/04/18 05:55:21;;;;;;;5.00;4.60;;;;;;;10.44;100.00;98029.46;107667;1251;61680;-54
2024/04/18 05:57:48;;;;;;;6.60;4.70;;;;;;;10.44;100.00;98035.66;107676;1251;61196;-55
2024/04/18 06:00:35;;;;;;;7.00;4.90;;;;;;;10.40;100.00;98043.41;107768;1253;75294;-55
2024/04/18 06:03:04;;;;;;;6.70;4.40;;;;;;;10.37;100.00;98044.86;107574;1253;69585;-57
2024/04/18 06:05:31;;;;;;;5.50;4.60;;;;;;;10.38;100.00;98047.62;107463;1253;72262;-55
2024/04/18 06:08:13;;;;;;;5.70;4.90;;;;;;;10.48;100.00;98053.05;107274;1252;62645;-55
2024/04/18 06:10:43;;;;;;;5.30;4.80;;;;;;;10.45;100.00;98057.97;107109;1254;60222;-55
2024/04/18 06:13:22;;;;;;;6.00;4.60;;;;;;;10.44;100.00;98052.12;107316;1254;74936;-54
2024/04/18 06:15:49;;;;;;;5.50;4.80;;;;;;;10.43;100.00;98047.25;107474;1253;69705;-54
2024/04/18 06:18:16;;;;;;;5.90;4.70;;;;;;;10.43;100.00;98047.27;107779;1255;72406;-54
2024/04/18 06:20:45;;;;;;;7.90;4.40;;;;;;;10.49;100.00;98045.09;107505;1252;59836;-54
2024/04/18 06:23:12;;;;;;;7.70;4.80;;;;;;;10.53;100.00;98046.71;107544;1252;60968;-55
2024/04/18 06:25:40;;;;;;;11.50;4.80;;;;;;;10.57;100.00;98044.20;107402;1254;74847;-55
2024/04/18 06:28:14;;;;;;;5.60;5.10;;;;;;;10.73;100.00;98047.32;107617;1253;70585;-55
2024/04/18 06:30:42;;;;;;;5.20;4.60;;;;;;;10.55;100.00;98046.80;107321;1252;72710;-55
2024/04/18 06:33:10;;;;;;;;;;;;;;;10.55;100.00;98044.34;107199;1253;61779;-56
2024/04/18 06:35:37;;;;;;;4.50;4.10;;;;;;;10.57;100.00;98042.96;107787;1252;59707;-54
2024/04/18 06:38:06;;;;;;;5.30;4.40;;;;;;;10.58;100.00;98041.53;107584;1254;75329;-59
2024/04/18 06:40:35;;;;;;;5.50;3.80;;;;;;;10.61;100.00;98041.64;107374;1254;70326;-57
2024/04/18 06:43:02;;;;;;;5.00;4.30;;;;;;;10.85;100.00;98039.13;106972;1254;73384;-60
2024/04/18 06:45:30;;;;;;;5.10;3.90;;;;;;;10.93;100.00;98034.89;107138;1255;61405;-58
2024/04/18 06:47:56;;;;;;;4.30;3.90;;;;;;;10.89;100.00;98033.28;107302;1255;60182;-58
2024/04/18 06:50:26;;;;;;;4.00;3.70;;;;;;;10.78;100.00;98035.20;107790;1252;74416;-57
2024/04/18 06:52:57;;;;;;;6.10;3.50;;;;;;;10.55;100.00;98033.45;107286;1255;71141;-58
2024/04/18 06:55:24;;;;;;;3.40;3.00;;;;;;;10.47;100.00;98034.86;107166;1253;73211;-58
2024/04/18 06:57:51;;;;;;;5.90;3.00;;;;;;;10.41;100.00;98038.65;107325;1253;61389;-58
2024/04/18 07:00:18;;;;;;;4.40;2.80;;;;;;;10.34;100.00;98040.17;107736;1253;60349;-58
2024/04/18 07:02:48;;;;;;;5.00;2.90;;;;;;;10.41;100.00;98040.70;107468;1253;75006;-58
2024/04/18 07:05:34;;;;;;;3.30;2.70;;;;;;;10.43;100.00;98042.69;106938;1254;69784;-58
2024/04/18 07:08:20;;;;;;;3.50;2.70;;;;;;;10.53;100.00;98048.34;107126;1253;72444;-59
2024/04/18 07:10:47;;;;;;;3.10;2.60;;;;;;;10.25;100.00;98048.21;107454;1253;61237;-58
2024/04/18 07:13:28;;;;;;;4.10;2.70;;;;;;;10.21;100.00;98052.35;107602;1253;61260;-58
2024/04/18 07:16:02;;;;;;;4.80;2.70;;;;;;;10.23;100.00;98051.52;107191;1253;75081;-58
2024/04/18 07:22:10;;;;;;;3.70;2.50;;;;;;;9.86;100.00;98057.83;103945;1291;615547;-55
2024/04/18 07:24:53;;;;;;;3.20;2.00;;;;;;;10.20;100.00;98054.03;106226;1265;61415;-55
2024/04/18 07:27:24;;;;;;;2.80;2.30;;;;;;;10.19;100.00;98052.48;105866;1271;59901;-55
2024/04/18 07:29:51;;;;;;;2.50;2.20;;;;;;;10.15;100.00;98049.25;105870;1267;73010;-55
2024/04/18 07:32:18;;;;;;;2.50;1.90;;;;;;;10.13;100.00;98048.52;106092;1266;71863;-55
2024/04/18 07:34:45;;;;;;;2.50;2.00;;;;;;;10.24;100.00;98056.90;106268;1259;806289;-57
2024/04/18 07:37:13;;;;;;;3.00;2.00;;;;;;;10.23;100.00;98056.83;106971;1259;60099;-55
2024/04/18 07:39:43;;;;;;;4.20;2.00;;;;;;;10.22;100.00;98064.04;107067;1256;60134;-56
2024/04/18 07:42:12;;;;;;;2.60;1.80;;;;;;;10.19;100.00;98061.76;107169;1260;74350;-55
2024/04/18 07:44:40;;;;;;;4.00;2.40;;;;;;;10.16;100.00;98060.74;107017;1255;69670;-56
2024/04/18 07:47:07;;;;;;;4.50;2.00;;;;;;;10.13;100.00;98062.66;107077;1259;73231;-56
2024/04/18 07:49:35;;;;;;;3.20;2.50;;;;;;;10.15;100.00;98062.20;107066;1256;61466;-56
2024/04/18 07:52:05;;;;;;;2.80;1.80;;;;;;;10.18;100.00;98055.19;107175;1256;60195;-56
2024/04/18 07:54:42;;;;;;;;;;;;;;;10.17;100.00;98047.03;107248;1256;73587;-56
2024/04/18 07:57:09;;;;;;;5.90;2.50;;;;;;;10.14;100.00;98044.23;107496;1255;70081;-55
2024/04/18 07:59:41;;;;;;;;;;;;;;;10.17;100.00;98045.14;107160;1255;72725;-56
2024/04/18 08:02:12;;;;;;;3.00;1.90;;;;;;;10.37;100.00;98039.61;107647;1253;60448;-56
2024/04/18 08:04:41;;;;;;;2.80;2.20;;;;;;;10.27;100.00;98041.11;107626;1251;60399;-55
2024/04/18 08:07:25;;;;;;;2.30;2.10;;;;;;;10.21;100.00;98036.27;107361;1256;74285;-55
2024/04/18 08:09:58;;;;;;;2.30;2.10;;;;;;;10.20;100.00;98035.99;107415;1252;70292;-56
2024/04/18 08:12:33;;;;;;;4.80;2.30;;;;;;;10.11;100.00;98020.46;107613;1252;71999;-56
2024/04/18 08:15:08;;;;;;;5.80;2.00;;;;;;;10.25;100.00;98032.34;107653;1251;60939;-56
2024/04/18 08:17:43;;;;;;;2.80;2.40;;;;;;;10.26;100.00;98026.66;107258;1251;59388;-55
2024/04/18 08:20:11;;;;;;;2.20;2.00;;;;;;;10.35;100.00;98034.98;107027;1251;72772;-55
2024/04/18 08:22:41;;;;;;;2.20;1.80;;;;;;;10.38;100.00;98027.80;107267;1253;69483;-55
2024/04/18 08:25:08;;;;;;;3.50;2.20;;;;;;;10.38;100.00;98033.42;107288;1251;72723;-55
2024/04/18 08:27:35;;;;;;;3.70;2.10;;;;;;;10.33;100.00;98032.70;107104;1253;60541;-59
2024/04/18 08:30:03;;;;;;;2.90;1.90;;;;;;;10.33;100.00;98032.86;106943;1251;60358;-55
2024/04/18 08:32:31;;;;;;;2.60;2.10;;;;;;;10.29;100.00;98021.35;106646;1253;74798;-55
2024/04/18 08:34:58;;;;;;;3.50;2.30;;;;;;;10.28;100.00;98019.29;107352;1253;69210;-56
2024/04/18 08:37:25;;;;;;;3.60;2.30;;;;;;;10.32;100.00;98016.77;107262;1253;72424;-55
2024/04/18 08:39:51;;;;;;;2.50;2.30;;;;;;;10.34;100.00;98012.30;106976;1253;60676;-55
2024/04/18 08:42:22;;;;;;;2.80;2.60;;;;;;;10.29;100.00;98007.17;107016;1253;60359;-56
2024/04/18 08:44:55;;;;;;;2.70;2.50;;;;;;;10.28;100.00;98011.30;107057;1250;73825;-55
2024/04/18 08:47:25;;;;;;;2.50;2.30;;;;;;;10.30;100.00;98011.50;106819;1253;68695;-55
2024/04/18 08:49:53;;;;;;;4.00;2.40;;;;;;;10.24;100.00;98013.96;107103;1252;73336;-55
2024/04/18 08:52:19;;;;;;;5.90;2.80;;;;;;;10.26;100.00;98011.61;106671;1253;60396;-55
2024/04/18 08:54:46;;;;;;;6.70;3.20;;;;;;;10.29;100.00;98005.23;107001;1254;60541;-55
2024/04/18 08:57:17;;;;;;;2.90;2.50;;;;;;;10.30;100.00;97995.73;107120;1252;73703;-60
2024/04/18 08:59:44;;;;;;;5.80;2.80;;;;;;;10.30;100.00;97986.66;107273;1252;70074;-55
2024/04/18 09:02:10;;;;;;;3.10;2.30;;;;;;;10.32;100.00;97978.61;106863;1253;73092;-56
2024/04/18 09:04:37;;;;;;;6.20;2.50;;;;;;;10.31;100.00;97968.73;107088;1251;60161;-55
2024/04/18 09:07:05;;;;;;;3.50;3.20;;;;;;;10.30;100.00;97964.40;106894;1252;60319;-56
2024/04/18 09:09:32;;;;;;;3.70;2.80;;;;;;;10.30;100.00;97963.52;107218;1253;72809;-55
2024/04/18 09:12:00;;;;;;;2.50;2.30;;;;;;;10.30;100.00;97958.28;107266;1253;69539;-55
2024/04/18 09:14:31;;;;;;;2.70;2.30;;;;;;;10.19;100.00;97940.09;106893;1256;72388;-55
2024/04/18 09:16:57;;;;;;;4.20;2.70;;;;;;;10.34;100.00;97956.81;107442;1253;61620;-55
2024/04/18 09:19:24;;;;;;;2.30;2.10;;;;;;;10.35;100.00;97960.09;106760;1251;60469;-56
2024/04/18 09:21:54;;;;;;;4.10;2.60;;;;;;;10.39;100.00;97964.36;107455;1252;73704;-56
2024/04/18 09:24:21;;;;;;;5.20;2.70;;;;;;;10.40;100.00;97966.92;107556;1252;70916;-56
2024/04/18 09:26:48;;;;;;;4.30;2.60;;;;;;;10.37;100.00;97960.48;107002;1252;71194;-55
2024/04/18 09:29:15;;;;;;;2.90;2.60;;;;;;;10.35;100.00;97953.58;107339;1252;61260;-57
2024/04/18 09:31:41;;;;;;;5.20;2.50;;;;;;;10.32;100.00;97945.85;107655;1252;60454;-55
2024/04/18 09:34:13;;;;;;;3.60;2.70;;;;;;;10.36;100.00;97945.96;106845;1257;72916;-56
2024/04/18 09:36:41;;;;;;;3.50;2.60;;;;;;;10.36;100.00;97935.68;107107;1256;69274;-55
2024/04/18 09:39:19;;;;;;;3.80;2.70;;;;;;;10.36;100.00;97931.81;107208;1253;73439;-55
2024/04/18 09:41:48;;;;;;;3.00;2.30;;;;;;;10.37;100.00;97932.25;107434;1252;61073;-55
2024/04/18 09:44:19;;;;;;;2.50;2.30;;;;;;;10.36;100.00;97926.41;107680;1255;60453;-56
2024/04/18 09:46:46;;;;;;;2.60;2.30;;;;;;;10.32;100.00;97917.70;106301;1253;74548;-55
2024/04/18 09:49:13;;;;;;;2.80;2.00;;;;;;;10.34;100.00;97910.75;106484;1253;69895;-55
2024/04/18 09:51:40;;;;;;;2.60;2.10;;;;;;;10.36;100.00;97910.25;106441;1252;72354;-55
2024/04/18 09:54:07;;;;;;;2.60;2.40;;;;;;;10.40;100.00;97912.27;106888;1251;60911;-55
2024/04/18 09:56:34;;;;;;;2.20;2.00;;;;;;;10.40;100.00;97910.64;106744;1253;60415;-55
2024/04/18 09:59:01;;;;;;;2.30;2.00;;;;;;;10.38;100.00;97911.70;106859;1256;74628;-55
2024/04/18 10:01:29;;;;;;;4.00;2.40;;;;;;;10.32;100.00;97907.37;107208;1258;69637;-56
2024/04/18 10:03:55;;;;;;;3.40;1.60;;;;;;;10.27;100.00;97908.68;106763;1254;72780;-56
2024/04/18 10:06:27;;;;;;;2.30;1.90;;;;;;;10.23;100.00;97912.30;107382;1251;61541;-55
2024/04/18 10:08:54;;;;;;;3.50;1.90;;;;;;;10.17;100.00;97907.13;106865;1252;60398;-55
2024/04/18 10:11:22;;;;;;;5.90;1.80;;;;;;;10.10;100.00;97896.02;106830;1252;73684;-55
2024/04/18 10:13:52;;;;;;;3.10;1.60;;;;;;;10.11;100.00;97898.98;106598;1256;69604;-56
2024/04/18 10:16:19;;;;;;;2.70;2.40;;;;;;;10.05;100.00;97905.12;106973;1253;72551;-55
2024/04/18 10:18:46;;;;;;;3.90;1.60;;;;;;;10.05;100.00;97900.92;106696;1255;60674;-59
2024/04/18 10:21:20;;;;;;;1.80;1.70;;;;;;;10.08;100.00;97894.08;107106;1252;60763;-55
2024/04/18 10:24:06;;;;;;;3.60;2.00;;;;;;;10.08;100.00;97891.25;107126;1251;75412;-55
2024/04/18 10:26:34;;;;;;;2.00;1.80;;;;;;;10.03;100.00;97893.35;106686;1254;69499;-54
2024/04/18 10:29:01;;;;;;;2.40;2.20;;;;;;;10.00;100.00;97891.50;106739;1256;72219;-55
2024/04/18 10:31:29;;;;;;;2.10;1.50;;;;;;;9.98;100.00;97896.15;107841;1250;60258;-56
2024/04/18 10:33:56;;;;;;;3.60;2.00;;;;;;;9.93;100.00;97905.63;106955;1255;60557;-54
2024/04/18 10:36:23;;;;;;;2.90;1.50;;;;;;;9.90;100.00;97903.22;107053;1255;74425;-55
2024/04/18 10:38:50;;;;;;;1.60;1.50;;;;;;;9.84;100.00;97900.95;107076;1252;69369;-55
2024/04/18 10:41:22;;;;;;;4.00;1.90;;;;;;;9.78;100.00;97894.24;107417;1252;72949;-54
2024/04/18 10:43:50;;;;;;;6.10;2.60;;;;;;;9.81;100.00;97888.55;106875;1253;61211;-60
2024/04/18 10:46:18;;;;;;;3.50;2.10;;;;;;;9.78;100.00;97889.85;107216;1252;60454;-57
2024/04/18 10:48:50;;;;;;;2.60;2.00;;;;;;;9.78;100.00;97901.92;106898;1254;74199;-56
2024/04/18 10:51:17;;;;;;;2.40;2.20;;;;;;;9.76;100.00;97910.05;106894;1253;69646;-56
2024/04/18 10:53:44;;;;;;;2.70;1.80;;;;;;;9.74;100.00;97928.23;107113;1254;71575;-56
2024/04/18 10:56:11;;;;;;;4.60;2.00;;;;;;;9.72;100.00;97938.50;107406;1255;60909;-56
2024/04/18 10:58:38;;;;;;;2.30;2.10;;;;;;;9.74;100.00;97934.84;106947;1259;60410;-57
2024/04/18 11:01:05;;;;;;;2.80;2.00;;;;;;;9.78;100.00;97922.55;107188;1258;75173;-56
2024/04/18 11:03:32;;;;;;;2.80;2.40;;;;;;;9.78;100.00;97912.39;106924;1253;70055;-58
2024/04/18 11:06:00;;;;;;;3.00;2.60;;;;;;;9.79;100.00;97908.83;107202;1255;73144;-58
2024/04/18 11:08:30;;;;;;;2.10;1.90;;;;;;;9.81;100.00;97903.48;107086;1253;60954;-58
2024/04/18 11:11:02;;;;;;;3.90;2.20;;;;;;;9.71;100.00;97907.41;106573;1257;60448;-56
2024/04/18 11:13:29;;;;;;;1.90;1.80;;;;;;;9.77;100.00;97904.92;107031;1254;72436;-56
2024/04/18 11:15:56;;;;;;;5.50;1.60;;;;;;;9.71;100.00;97899.95;106593;1257;69385;-56
2024/04/18 11:18:23;;;;;;;2.80;2.10;;;;;;;9.63;100.00;97894.81;107105;1255;72748;-56
2024/04/18 11:20:52;;;;;;;2.30;2.10;;;;;;;9.72;100.00;97891.59;106701;1255;61127;-56
2024/04/18 11:23:22;;;;;;;2.70;2.00;;;;;;;9.63;100.00;97889.45;107135;1256;59975;-56
2024/04/18 11:26:01;;;;;;;2.20;2.00;;;;;;;9.56;100.00;97895.17;106623;1254;73544;-56
2024/04/18 11:28:28;;;;;;;4.00;2.10;;;;;;;9.47;100.00;97896.95;106897;1256;69176;-57
2024/04/18 11:30:55;;;;;;;3.30;2.20;;;;;;;9.35;100.00;97898.30;106361;1255;72511;-56
2024/04/18 11:33:22;;;;;;;2.10;1.90;;;;;;;9.43;100.00;97902.14;104506;1255;61351;-56
2024/04/18 11:35:50;;;;;;;3.80;1.90;;;;;;;9.37;100.00;97905.83;104633;1274;61797;-56
2024/04/18 11:38:17;;;;;;;2.60;2.00;;;;;;;9.52;100.00;97904.81;104562;1258;73078;-56
2024/04/18 11:40:44;;;;;;;4.40;1.60;;;;;;;9.59;100.00;97909.42;105279;1255;69635;-54
2024/04/18 11:43:11;;;;;;;8.10;2.00;;;;;;;9.65;100.00;97906.44;104712;1256;72550;-55
2024/04/18 11:45:37;;;;;;;2.30;2.10;;;;;;;9.72;100.00;97908.26;104706;1258;61362;-57
2024/04/18 11:48:05;;;;;;;5.20;1.90;;;;;;;9.74;100.00;97903.02;105318;1255;61342;-56